createdAt,value
2023-04-23T00:00:57.816Z,94617.06
2023-04-23T00:01:59.310Z,94677.13
2023-04-23T00:02:58.482Z,94664.88
2023-04-23T00:03:59.012Z,94651.13
2023-04-23T00:05:02.712Z,94664.88
2023-04-23T00:06:00.290Z,94668.41
2023-04-23T00:06:58.490Z,94672.88
2023-04-23T00:08:00.604Z,94662.69
2023-04-23T00:09:00.109Z,94674.88
2023-04-23T00:09:58.164Z,94680.63
2023-04-23T00:10:55.189Z,94680.00
2023-04-23T00:11:52.277Z,94675.16
2023-04-23T00:12:49.451Z,94654.44
2023-04-23T00:13:47.527Z,94661.47
2023-04-23T00:14:44.566Z,94654.44
2023-04-23T00:15:41.556Z,94656.63
2023-04-23T00:16:40.363Z,94671.59
2023-04-23T00:17:37.375Z,94643.16
2023-04-23T00:18:34.298Z,94641.28
2023-04-23T00:19:31.191Z,94643.72
2023-04-23T00:20:28.053Z,94607.97
2023-04-23T00:21:25.084Z,94661.63
2023-04-23T00:22:22.216Z,94658.16
2023-04-23T00:23:19.074Z,94671.88
2023-04-23T00:24:15.912Z,94648.63
2023-04-23T00:25:12.763Z,94635.13
2023-04-23T00:26:09.474Z,94618.88
2023-04-23T00:27:06.877Z,94632.69
2023-04-23T00:28:04.249Z,94573.25
2023-04-23T00:29:00.998Z,94655.28
2023-04-23T00:29:57.828Z,94677.19
2023-04-23T00:30:54.725Z,94656.03
2023-04-23T00:31:51.737Z,94674.25
2023-04-23T00:32:48.662Z,94671.22
2023-04-23T00:33:45.513Z,94660.88
2023-04-23T00:34:42.604Z,94606.25
2023-04-23T00:35:39.668Z,94655.03
2023-04-23T00:36:36.432Z,94664.88
2023-04-23T00:37:33.295Z,94666.47
2023-04-23T00:38:30.172Z,94669.56
2023-04-23T00:39:26.943Z,94669.75
2023-04-23T00:40:23.993Z,94586.50
2023-04-23T00:41:21.151Z,94670.59
2023-04-23T00:42:17.937Z,94669.63
2023-04-23T00:43:15.577Z,94670.28
2023-04-23T00:44:13.251Z,94669.25
2023-04-23T00:45:10.458Z,94666.22
2023-04-23T00:46:07.321Z,94615.22
2023-04-23T00:47:05.739Z,94656.69
2023-04-23T00:48:03.952Z,94619.63
2023-04-23T00:49:01.630Z,94682.38
2023-04-23T00:49:59.814Z,94668.66
2023-04-23T00:51:00.757Z,94677.50
2023-04-23T00:51:57.579Z,94679.16
2023-04-23T00:52:54.388Z,94627.69
2023-04-23T00:53:51.488Z,94671.03
2023-04-23T00:54:48.306Z,94600.50
2023-04-23T00:55:45.453Z,94614.22
2023-04-23T00:56:42.266Z,94670.78
2023-04-23T00:57:39.684Z,94676.47
2023-04-23T00:58:36.868Z,94670.13
2023-04-23T00:59:34.185Z,94627.91
2023-04-23T01:00:31.030Z,94663.34
2023-04-23T01:01:28.195Z,94669.22
2023-04-23T01:02:28.605Z,94664.59
2023-04-23T01:03:27.047Z,94661.38
2023-04-23T01:04:27.851Z,94618.34
2023-04-23T01:05:26.116Z,94670.59
2023-04-23T01:06:25.290Z,94667.19
2023-04-23T01:07:23.689Z,94673.63
2023-04-23T01:08:25.184Z,94637.03
2023-04-23T01:09:23.547Z,94673.22
2023-04-23T01:10:21.466Z,94608.06
2023-04-23T01:11:18.452Z,94588.91
2023-04-23T01:12:16.786Z,94665.09
2023-04-23T01:13:14.656Z,94674.38
2023-04-23T01:14:11.510Z,94660.47
2023-04-23T01:15:09.151Z,94665.91
2023-04-23T01:16:06.780Z,94671.78
2023-04-23T01:17:04.354Z,94632.38
2023-04-23T01:18:01.834Z,94676.84
2023-04-23T01:18:58.694Z,94673.16
2023-04-23T01:19:55.592Z,94676.78
2023-04-23T01:20:52.485Z,94642.56
2023-04-23T01:21:50.963Z,94645.69
2023-04-23T01:22:57.113Z,94672.66
2023-04-23T01:23:53.937Z,94676.78
2023-04-23T01:24:52.106Z,94678.09
2023-04-23T01:25:49.071Z,94644.25
2023-04-23T01:26:56.480Z,94670.41
2023-04-23T01:27:53.489Z,94622.59
2023-04-23T01:28:50.733Z,94611.31
2023-04-23T01:29:48.178Z,94591.09
2023-04-23T01:30:46.663Z,94675.47
2023-04-23T01:31:45.101Z,94667.31
2023-04-23T01:32:43.277Z,94670.34
2023-04-23T01:33:41.474Z,94676.28
2023-04-23T01:34:39.538Z,94660.63
2023-04-23T01:35:36.716Z,94674.75
2023-04-23T01:36:36.112Z,94676.25
2023-04-23T01:37:36.081Z,94675.44
2023-04-23T01:38:34.279Z,94687.78
2023-04-23T01:39:31.512Z,94525.28
2023-04-23T01:40:28.742Z,94637.09
2023-04-23T01:41:25.697Z,94641.31
2023-04-23T01:42:23.591Z,94672.28
2023-04-23T01:43:21.113Z,94680.59
2023-04-23T01:44:18.059Z,94662.91
2023-04-23T01:45:15.664Z,94677.09
2023-04-23T01:46:12.925Z,94609.63
2023-04-23T01:47:10.221Z,94643.81
2023-04-23T01:48:07.273Z,94668.66
2023-04-23T01:49:04.509Z,94632.84
2023-04-23T01:50:01.362Z,94663.88
2023-04-23T01:50:58.739Z,94680.25
2023-04-23T01:51:55.555Z,94635.06
2023-04-23T01:52:52.396Z,94632.22
2023-04-23T01:53:49.250Z,94680.13
2023-04-23T01:54:46.038Z,94676.34
2023-04-23T01:55:45.676Z,94640.38
2023-04-23T01:56:42.595Z,94681.97
2023-04-23T01:57:40.248Z,94680.31
2023-04-23T01:58:36.968Z,94681.94
2023-04-23T01:59:33.715Z,94570.38
2023-04-23T02:00:31.057Z,94687.00
2023-04-23T02:01:42.991Z,94651.19
2023-04-23T02:02:42.370Z,94641.72
2023-04-23T02:03:39.594Z,94666.09
2023-04-23T02:04:39.061Z,94651.13
2023-04-23T02:05:36.832Z,94681.25
2023-04-23T02:06:33.572Z,94674.22
2023-04-23T02:07:32.269Z,94671.66
2023-04-23T02:08:29.146Z,94623.31
2023-04-23T02:09:25.942Z,94667.78
2023-04-23T02:10:22.734Z,94686.59
2023-04-23T02:11:19.544Z,94631.88
2023-04-23T02:12:16.431Z,94683.59
2023-04-23T02:13:13.201Z,94676.25
2023-04-23T02:14:10.486Z,94681.00
2023-04-23T02:15:09.611Z,94667.59
2023-04-23T02:16:06.787Z,94674.22
2023-04-23T02:17:03.638Z,94626.50
2023-04-23T02:18:00.397Z,94685.28
2023-04-23T02:18:57.306Z,94682.81
2023-04-23T02:19:55.846Z,94635.41
2023-04-23T02:20:52.580Z,94655.69
2023-04-23T02:21:49.515Z,94586.84
2023-04-23T02:22:47.871Z,94688.91
2023-04-23T02:23:44.600Z,94582.00
2023-04-23T02:24:42.581Z,94575.09
2023-04-23T02:25:39.722Z,94685.84
2023-04-23T02:26:36.791Z,94662.09
2023-04-23T02:27:33.522Z,94617.88
2023-04-23T02:28:31.417Z,94681.09
2023-04-23T02:29:28.245Z,94686.31
2023-04-23T02:30:25.687Z,94653.03
2023-04-23T02:31:22.864Z,94658.03
2023-04-23T02:32:20.108Z,94693.88
2023-04-23T02:33:16.916Z,94684.66
2023-04-23T02:34:13.734Z,94681.75
2023-04-23T02:35:10.764Z,94688.59
2023-04-23T02:36:07.673Z,94637.44
2023-04-23T02:37:07.695Z,94623.94
2023-04-23T02:38:04.871Z,94657.50
2023-04-23T02:39:01.656Z,94687.44
2023-04-23T02:39:58.382Z,94648.34
2023-04-23T02:40:55.188Z,94690.78
2023-04-23T02:41:52.002Z,94683.63
2023-04-23T02:42:49.717Z,94686.34
2023-04-23T02:43:46.987Z,94689.38
2023-04-23T02:44:43.812Z,94648.44
2023-04-23T02:45:40.597Z,94666.75
2023-04-23T02:46:38.121Z,94682.47
2023-04-23T02:47:34.866Z,94538.59
2023-04-23T02:48:31.843Z,94685.53
2023-04-23T02:49:28.718Z,94606.44
2023-04-23T02:50:25.496Z,94638.84
2023-04-23T02:51:22.338Z,94631.19
2023-04-23T02:52:19.297Z,94618.09
2023-04-23T02:53:16.397Z,94689.56
2023-04-23T02:54:14.053Z,94667.09
2023-04-23T02:55:11.155Z,94651.63
2023-04-23T02:56:08.035Z,94660.66
2023-04-23T02:57:06.246Z,94627.84
2023-04-23T02:58:03.046Z,94638.75
2023-04-23T02:58:59.877Z,94593.66
2023-04-23T02:59:56.619Z,94659.66
2023-04-23T03:00:53.541Z,94653.28
2023-04-23T03:01:51.581Z,94601.81
2023-04-23T03:02:48.495Z,94680.72
2023-04-23T03:03:45.629Z,94694.03
2023-04-23T03:04:43.321Z,94653.34
2023-04-23T03:05:40.728Z,94643.88
2023-04-23T03:06:37.675Z,94628.69
2023-04-23T03:07:34.578Z,94668.81
2023-04-23T03:08:31.409Z,94656.78
2023-04-23T03:09:28.185Z,94663.00
2023-04-23T03:10:25.043Z,94701.88
2023-04-23T03:11:22.729Z,94701.81
2023-04-23T03:12:19.466Z,94694.00
2023-04-23T03:13:16.390Z,94698.38
2023-04-23T03:14:13.232Z,94688.31
2023-04-23T03:15:10.360Z,94591.34
2023-04-23T03:16:07.410Z,94697.44
2023-04-23T03:17:04.297Z,94666.22
2023-04-23T03:18:01.554Z,94623.50
2023-04-23T03:18:59.047Z,94701.81
2023-04-23T03:19:55.832Z,94658.50
2023-04-23T03:20:52.549Z,94683.03
2023-04-23T03:21:49.292Z,94698.00
2023-04-23T03:22:46.116Z,94652.50
2023-04-23T03:23:42.871Z,94662.56
2023-04-23T03:24:39.854Z,94706.91
2023-04-23T03:25:36.873Z,94701.69
2023-04-23T03:26:34.789Z,94585.50
2023-04-23T03:27:31.615Z,94685.34
2023-04-23T03:28:28.371Z,94580.84
2023-04-23T03:29:25.212Z,94676.63
2023-04-23T03:30:22.175Z,94700.78
2023-04-23T03:31:19.163Z,94696.31
2023-04-23T03:32:16.041Z,94700.34
2023-04-23T03:33:12.767Z,94709.41
2023-04-23T03:34:09.555Z,94662.34
2023-04-23T03:35:06.682Z,94684.66
2023-04-23T03:36:03.644Z,94574.53
2023-04-23T03:37:00.473Z,94701.75
2023-04-23T03:37:57.227Z,94702.44
2023-04-23T03:38:53.989Z,94642.88
2023-04-23T03:39:51.397Z,94700.88
2023-04-23T03:40:48.294Z,94708.16
2023-04-23T03:41:45.049Z,94680.94
2023-04-23T03:42:41.762Z,94706.91
2023-04-23T03:43:38.452Z,94710.84
2023-04-23T03:44:35.188Z,94711.78
2023-04-23T03:45:32.471Z,94703.94
2023-04-23T03:46:48.042Z,94706.81
2023-04-23T03:47:45.058Z,94710.66
2023-04-23T03:48:41.852Z,94687.28
2023-04-23T03:49:38.809Z,94706.66
2023-04-23T03:50:38.994Z,94708.06
2023-04-23T03:51:37.048Z,94642.59
2023-04-23T03:52:33.895Z,94712.44
2023-04-23T03:53:30.806Z,94670.19
2023-04-23T03:54:28.306Z,94625.75
2023-04-23T03:55:25.447Z,94690.00
2023-04-23T03:56:22.186Z,94670.47
2023-04-23T03:57:18.920Z,94636.84
2023-04-23T03:58:15.753Z,94675.09
2023-04-23T03:59:12.489Z,94706.31
2023-04-23T04:00:11.920Z,94710.13
2023-04-23T04:01:08.729Z,94600.97
2023-04-23T04:02:06.161Z,94722.59
2023-04-23T04:03:03.284Z,94698.19
2023-04-23T04:04:00.387Z,94721.94
2023-04-23T04:04:57.574Z,94715.00
2023-04-23T04:05:54.727Z,94720.44
2023-04-23T04:06:51.508Z,94717.97
2023-04-23T04:07:48.292Z,94707.75
2023-04-23T04:08:45.104Z,94687.00
2023-04-23T04:09:42.103Z,94722.56
2023-04-23T04:10:38.909Z,94606.84
2023-04-23T04:11:36.932Z,94670.47
2023-04-23T04:12:33.834Z,94716.78
2023-04-23T04:13:31.390Z,94715.91
2023-04-23T04:14:28.292Z,94701.88
2023-04-23T04:15:25.165Z,94719.94
2023-04-23T04:16:21.935Z,94548.66
2023-04-23T04:17:18.775Z,94694.97
2023-04-23T04:18:16.344Z,94693.63
2023-04-23T04:19:13.117Z,94726.19
2023-04-23T04:20:11.291Z,94656.28
2023-04-23T04:21:08.108Z,94724.69
2023-04-23T04:22:04.914Z,94646.13
2023-04-23T04:23:01.763Z,94674.03
2023-04-23T04:23:58.543Z,94717.47
2023-04-23T04:24:56.286Z,94720.59
2023-04-23T04:25:56.485Z,94705.16
2023-04-23T04:26:54.124Z,94722.06
2023-04-23T04:27:51.128Z,94724.66
2023-04-23T04:28:47.834Z,94683.97
2023-04-23T04:29:44.596Z,94712.41
2023-04-23T04:30:42.683Z,94701.78
2023-04-23T04:31:39.688Z,94709.13
2023-04-23T04:32:38.875Z,94651.19
2023-04-23T04:33:36.083Z,94732.97
2023-04-23T04:34:33.096Z,94653.63
2023-04-23T04:35:29.975Z,94712.06
2023-04-23T04:36:27.361Z,94731.00
2023-04-23T04:37:24.605Z,94696.69
2023-04-23T04:38:22.288Z,94644.63
2023-04-23T04:39:19.233Z,94738.53
2023-04-23T04:40:16.031Z,94740.44
2023-04-23T04:41:13.319Z,94740.69
2023-04-23T04:42:10.833Z,94745.50
2023-04-23T04:43:07.725Z,94732.19
2023-04-23T04:44:04.631Z,94741.44
2023-04-23T04:45:01.437Z,94744.75
2023-04-23T04:45:59.200Z,94748.03
2023-04-23T04:46:56.644Z,94724.13
2023-04-23T04:47:53.471Z,94720.72
2023-04-23T04:48:50.283Z,94753.31
2023-04-23T04:49:47.251Z,94684.63
2023-04-23T04:50:44.450Z,94727.38
2023-04-23T04:51:41.793Z,94715.19
2023-04-23T04:52:38.585Z,94684.72
2023-04-23T04:53:36.093Z,94740.38
2023-04-23T04:54:32.944Z,94742.06
2023-04-23T04:55:31.144Z,94728.28
2023-04-23T04:56:28.144Z,94705.34
2023-04-23T04:57:24.942Z,94707.72
2023-04-23T04:58:21.687Z,94762.63
2023-04-23T04:59:18.375Z,94670.09
2023-04-23T05:00:24.688Z,94704.16
2023-04-23T05:01:40.337Z,94705.78
2023-04-23T05:02:37.237Z,94716.94
2023-04-23T05:03:34.346Z,94749.19
2023-04-23T05:04:31.292Z,94717.78
2023-04-23T05:05:28.431Z,94697.63
2023-04-23T05:06:25.516Z,94680.28
2023-04-23T05:07:22.322Z,94750.59
2023-04-23T05:08:21.433Z,94754.31
2023-04-23T05:09:18.312Z,94720.41
2023-04-23T05:10:15.890Z,94753.13
2023-04-23T05:11:12.704Z,94751.84
2023-04-23T05:12:09.547Z,94740.84
2023-04-23T05:13:06.372Z,94735.50
2023-04-23T05:14:04.453Z,94749.66
2023-04-23T05:15:01.198Z,94717.16
2023-04-23T05:15:57.936Z,94705.13
2023-04-23T05:16:54.733Z,94754.06
2023-04-23T05:17:53.618Z,94649.59
2023-04-23T05:18:50.471Z,94700.44
2023-04-23T05:19:47.431Z,94702.94
2023-04-23T05:20:44.459Z,94752.78
2023-04-23T05:21:42.590Z,94753.97
2023-04-23T05:22:41.622Z,94759.22
2023-04-23T05:23:38.417Z,94761.13
2023-04-23T05:24:35.171Z,94752.22
2023-04-23T05:25:32.299Z,94726.66
2023-04-23T05:26:29.502Z,94700.25
2023-04-23T05:27:26.869Z,94762.75
2023-04-23T05:28:23.803Z,94725.31
2023-04-23T05:29:20.553Z,94741.19
2023-04-23T05:30:17.470Z,94702.47
2023-04-23T05:31:14.406Z,94728.69
2023-04-23T05:32:11.474Z,94759.72
2023-04-23T05:33:08.751Z,94683.63
2023-04-23T05:34:05.476Z,94766.25
2023-04-23T05:35:03.952Z,94740.56
2023-04-23T05:36:00.809Z,94737.13
2023-04-23T05:36:57.614Z,94761.59
2023-04-23T05:37:54.330Z,94706.38
2023-04-23T05:38:51.060Z,94748.94
2023-04-23T05:39:47.864Z,94685.28
2023-04-23T05:40:44.655Z,94757.53
2023-04-23T05:41:41.439Z,94763.97
2023-04-23T05:42:38.542Z,94741.44
2023-04-23T05:43:35.325Z,94771.69
2023-04-23T05:44:32.071Z,94726.97
2023-04-23T05:45:29.006Z,94748.59
2023-04-23T05:46:26.228Z,94762.69
2023-04-23T05:47:23.053Z,94712.94
2023-04-23T05:48:19.888Z,94770.84
2023-04-23T05:49:16.617Z,94752.47
2023-04-23T05:50:13.478Z,94743.75
2023-04-23T05:51:10.208Z,94704.31
2023-04-23T05:52:07.226Z,94771.47
2023-04-23T05:53:04.068Z,94768.28
2023-04-23T05:54:00.943Z,94677.84
2023-04-23T05:54:57.950Z,94770.97
2023-04-23T05:55:54.713Z,94707.97
2023-04-23T05:56:53.490Z,94740.13
2023-04-23T05:57:51.418Z,94776.50
2023-04-23T05:58:48.217Z,94770.34
2023-04-23T05:59:45.285Z,94751.69
2023-04-23T06:00:42.171Z,94733.72
2023-04-23T06:01:39.086Z,94735.34
2023-04-23T06:02:35.900Z,94767.50
2023-04-23T06:03:32.928Z,94767.16
2023-04-23T06:04:30.136Z,94769.66
2023-04-23T06:05:27.288Z,94774.44
2023-04-23T06:06:24.139Z,94722.00
2023-04-23T06:07:21.047Z,94665.06
2023-04-23T06:08:18.450Z,94769.31
2023-04-23T06:09:15.441Z,94770.59
2023-04-23T06:10:12.891Z,94691.84
2023-04-23T06:11:09.603Z,94760.50
2023-04-23T06:12:06.573Z,94757.72
2023-04-23T06:13:03.472Z,94760.16
2023-04-23T06:14:00.329Z,94764.53
2023-04-23T06:14:57.150Z,94761.69
2023-04-23T06:15:53.964Z,94764.53
2023-04-23T06:16:50.696Z,94752.50
2023-04-23T06:17:47.500Z,94706.25
2023-04-23T06:18:44.250Z,94743.75
2023-04-23T06:19:41.610Z,94754.09
2023-04-23T06:20:38.550Z,94739.88
2023-04-23T06:21:35.366Z,94755.59
2023-04-23T06:22:32.812Z,94770.16
2023-04-23T06:23:29.996Z,94764.44
2023-04-23T06:24:26.786Z,94721.41
2023-04-23T06:25:23.745Z,94768.56
2023-04-23T06:26:20.814Z,94706.94
2023-04-23T06:27:17.569Z,94697.09
2023-04-23T06:28:14.391Z,94671.94
2023-04-23T06:29:11.125Z,94772.47
2023-04-23T06:30:08.798Z,94756.78
2023-04-23T06:31:06.326Z,94766.81
2023-04-23T06:32:03.548Z,94760.53
2023-04-23T06:33:01.567Z,94768.09
2023-04-23T06:33:58.458Z,94773.94
2023-04-23T06:35:01.575Z,94754.56
2023-04-23T06:35:59.118Z,94765.22
2023-04-23T06:36:55.863Z,94736.75
2023-04-23T06:37:52.602Z,94769.78
2023-04-23T06:38:49.312Z,94698.06
2023-04-23T06:39:46.298Z,94711.41
2023-04-23T06:40:43.049Z,94769.31
2023-04-23T06:41:39.956Z,94774.09
2023-04-23T06:42:36.707Z,94600.00
2023-04-23T06:43:34.327Z,94694.50
2023-04-23T06:44:31.108Z,94656.41
2023-04-23T06:45:27.829Z,94741.47
2023-04-23T06:46:24.662Z,94707.03
2023-04-23T06:47:21.357Z,94545.69
2023-04-23T06:48:18.670Z,94728.63
2023-04-23T06:49:16.056Z,94768.53
2023-04-23T06:50:12.852Z,94764.41
2023-04-23T06:51:09.588Z,94707.16
2023-04-23T06:52:06.333Z,94767.63
2023-04-23T06:53:03.338Z,94659.56
2023-04-23T06:54:00.335Z,94671.19
2023-04-23T06:54:57.035Z,94750.50
2023-04-23T06:55:53.821Z,94764.28
2023-04-23T06:56:51.174Z,94754.53
2023-04-23T06:57:48.013Z,94761.19
2023-04-23T06:58:44.812Z,94763.50
2023-04-23T06:59:41.610Z,94684.69
2023-04-23T07:00:38.446Z,94761.09
2023-04-23T07:01:35.401Z,94710.97
2023-04-23T07:02:32.267Z,94756.59
2023-04-23T07:03:29.237Z,94729.88
2023-04-23T07:04:26.282Z,94653.25
2023-04-23T07:05:23.159Z,94755.53
2023-04-23T07:06:20.384Z,94755.84
2023-04-23T07:07:17.404Z,94757.97
2023-04-23T07:08:14.696Z,94755.28
2023-04-23T07:09:11.509Z,94752.88
2023-04-23T07:10:09.505Z,94738.72
2023-04-23T07:11:06.323Z,94764.00
2023-04-23T07:12:03.349Z,94772.75
2023-04-23T07:13:00.074Z,94758.53
2023-04-23T07:13:56.913Z,94757.69
2023-04-23T07:14:54.432Z,94708.63
2023-04-23T07:15:51.214Z,94753.13
2023-04-23T07:16:47.992Z,94721.03
2023-04-23T07:17:44.842Z,94756.47
2023-04-23T07:18:41.663Z,94686.06
2023-04-23T07:19:42.436Z,94728.25
2023-04-23T07:20:39.195Z,94690.34
2023-04-23T07:21:35.950Z,94759.91
2023-04-23T07:22:33.310Z,94760.38
2023-04-23T07:23:30.254Z,94715.72
2023-04-23T07:24:27.204Z,94758.03
2023-04-23T07:25:24.723Z,94754.41
2023-04-23T07:26:25.447Z,94756.47
2023-04-23T07:27:22.269Z,94753.50
2023-04-23T07:28:19.012Z,94692.16
2023-04-23T07:29:15.872Z,94750.44
2023-04-23T07:30:13.118Z,94755.63
2023-04-23T07:31:10.603Z,94756.25
2023-04-23T07:32:07.557Z,94666.56
2023-04-23T07:33:04.561Z,94753.63
2023-04-23T07:34:01.459Z,94702.09
2023-04-23T07:34:58.202Z,94686.88
2023-04-23T07:35:54.962Z,94748.19
2023-04-23T07:36:52.284Z,94744.50
2023-04-23T07:37:56.551Z,94757.19
2023-04-23T07:38:53.759Z,94669.28
2023-04-23T07:39:50.483Z,94706.66
2023-04-23T07:40:47.462Z,94700.47
2023-04-23T07:41:44.226Z,94721.00
2023-04-23T07:42:40.985Z,94703.59
2023-04-23T07:43:38.654Z,94748.84
2023-04-23T07:44:35.474Z,94749.00
2023-04-23T07:45:32.154Z,94722.19
2023-04-23T07:46:28.939Z,94614.75
2023-04-23T07:47:25.901Z,94719.38
2023-04-23T07:48:22.783Z,94731.91
2023-04-23T07:49:19.533Z,94653.69
2023-04-23T07:50:16.439Z,94738.34
2023-04-23T07:51:13.178Z,94751.91
2023-04-23T07:52:10.079Z,94754.94
2023-04-23T07:53:06.858Z,94750.19
2023-04-23T07:54:03.792Z,94747.59
2023-04-23T07:55:00.739Z,94753.06
2023-04-23T07:55:57.882Z,94495.84
2023-04-23T07:56:54.724Z,94736.41
2023-04-23T07:57:51.472Z,94505.13
2023-04-23T07:58:48.629Z,94697.81
2023-04-23T07:59:45.392Z,94745.59
2023-04-23T08:00:42.286Z,94748.75
2023-04-23T08:01:39.138Z,94750.81
2023-04-23T08:02:36.113Z,94753.69
2023-04-23T08:03:33.064Z,94745.31
2023-04-23T08:04:30.230Z,94749.63
2023-04-23T08:05:27.618Z,94748.19
2023-04-23T08:06:24.439Z,94734.56
2023-04-23T08:07:21.248Z,94702.44
2023-04-23T08:08:18.079Z,94598.03
2023-04-23T08:09:14.887Z,94738.44
2023-04-23T08:10:11.753Z,94744.34
2023-04-23T08:11:08.804Z,94698.88
2023-04-23T08:12:05.616Z,94715.81
2023-04-23T08:13:03.258Z,94743.00
2023-04-23T08:14:01.504Z,94696.47
2023-04-23T08:14:58.420Z,94739.78
2023-04-23T08:15:55.306Z,94641.13
2023-04-23T08:16:52.219Z,94739.59
2023-04-23T08:17:49.117Z,94743.22
2023-04-23T08:18:57.888Z,94706.63
2023-04-23T08:20:01.360Z,94700.69
2023-04-23T08:20:58.331Z,94739.25
2023-04-23T08:21:55.176Z,94689.78
2023-04-23T08:22:53.823Z,94737.44
2023-04-23T08:23:50.648Z,94694.19
2023-04-23T08:24:47.589Z,94737.34
2023-04-23T08:25:44.295Z,94733.19
2023-04-23T08:26:41.007Z,94736.44
2023-04-23T08:27:37.873Z,94729.34
2023-04-23T08:28:34.682Z,94703.72
2023-04-23T08:29:31.429Z,94723.91
2023-04-23T08:30:28.198Z,94724.50
2023-04-23T08:31:27.081Z,94729.72
2023-04-23T08:32:24.426Z,94657.34
2023-04-23T08:33:21.464Z,94667.66
2023-04-23T08:34:18.194Z,94662.25
2023-04-23T08:35:14.989Z,94704.38
2023-04-23T08:36:11.708Z,94723.91
2023-04-23T08:37:13.905Z,94692.78
2023-04-23T08:38:16.713Z,94724.50
2023-04-23T08:39:13.594Z,94723.41
2023-04-23T08:40:10.734Z,94679.59
2023-04-23T08:41:11.657Z,94718.47
2023-04-23T08:42:32.797Z,94716.31
2023-04-23T08:43:43.309Z,94702.13
2023-04-23T08:44:43.210Z,94699.97
2023-04-23T08:45:41.734Z,94717.81
2023-04-23T08:46:43.214Z,94718.81
2023-04-23T08:47:43.486Z,94678.72
2023-04-23T08:48:41.696Z,94693.50
2023-04-23T08:49:46.575Z,94706.06
2023-04-23T08:50:44.540Z,94714.78
2023-04-23T08:51:48.372Z,94615.97
2023-04-23T08:52:53.974Z,94712.34
2023-04-23T08:53:56.190Z,94641.75
2023-04-23T08:54:54.966Z,94517.75
2023-04-23T08:55:52.485Z,94685.31
2023-04-23T08:56:51.395Z,94676.91
2023-04-23T08:57:49.788Z,94690.69
2023-04-23T08:58:47.801Z,94709.00
2023-04-23T08:59:46.579Z,94691.88
2023-04-23T09:00:43.981Z,94677.97
2023-04-23T09:01:42.039Z,94706.13
2023-04-23T09:02:41.917Z,94632.88
2023-04-23T09:03:41.017Z,94704.66
2023-04-23T09:04:39.195Z,94708.72
2023-04-23T09:05:36.713Z,94711.34
2023-04-23T09:06:33.841Z,94705.88
2023-04-23T09:07:30.796Z,94602.41
2023-04-23T09:08:27.683Z,94685.28
2023-04-23T09:09:28.572Z,94705.88
2023-04-23T09:10:28.602Z,94692.59
2023-04-23T09:11:28.729Z,94658.88
2023-04-23T09:12:28.825Z,94599.56
2023-04-23T09:13:26.962Z,94583.88
2023-04-23T09:14:27.555Z,94474.06
2023-04-23T09:15:27.202Z,94692.59
2023-04-23T09:16:27.224Z,94684.84
2023-04-23T09:17:30.741Z,94632.31
2023-04-23T09:18:35.430Z,94658.19
2023-04-23T09:19:40.138Z,94639.41
2023-04-23T09:20:39.761Z,94517.59
2023-04-23T09:21:40.574Z,94414.72
2023-04-23T09:22:48.892Z,94624.94
2023-04-23T09:23:45.665Z,94692.75
2023-04-23T09:24:45.413Z,94694.69
2023-04-23T09:25:42.186Z,94586.38
2023-04-23T09:26:49.808Z,94664.34
2023-04-23T09:27:52.009Z,94684.88
2023-04-23T09:28:51.678Z,94598.56
2023-04-23T09:29:57.283Z,94700.38
2023-04-23T09:30:56.263Z,94691.59
2023-04-23T09:31:58.709Z,94691.31
2023-04-23T09:32:55.566Z,94600.47
2023-04-23T09:33:56.732Z,94695.34
2023-04-23T09:34:59.645Z,94681.44
2023-04-23T09:35:59.463Z,94685.41
2023-04-23T09:36:56.539Z,94688.00
2023-04-23T09:37:55.395Z,94669.03
2023-04-23T09:38:57.089Z,94658.72
2023-04-23T09:39:56.983Z,94644.50
2023-04-23T09:40:53.847Z,94682.53
2023-04-23T09:41:54.415Z,94672.84
2023-04-23T09:42:54.776Z,94636.44
2023-04-23T09:43:58.386Z,94683.78
2023-04-23T09:45:03.137Z,94677.22
2023-04-23T09:46:01.446Z,94609.56
2023-04-23T09:47:12.383Z,94657.63
2023-04-23T09:48:09.224Z,94565.16
2023-04-23T09:49:12.617Z,94638.06
2023-04-23T09:50:12.642Z,94647.69
2023-04-23T09:51:09.624Z,94669.13
2023-04-23T09:52:10.518Z,94651.03
2023-04-23T09:53:14.066Z,94632.22
2023-04-23T09:54:15.588Z,94626.97
2023-04-23T09:55:12.303Z,94578.81
2023-04-23T09:56:12.086Z,94628.56
2023-04-23T09:57:09.057Z,94667.81
2023-04-23T09:58:13.506Z,94470.03
2023-04-23T09:59:45.287Z,94642.59
2023-04-23T10:00:43.950Z,94665.66
2023-04-23T10:01:49.442Z,94656.47
2023-04-23T10:02:49.270Z,94655.97
2023-04-23T10:03:53.615Z,94629.81
2023-04-23T10:05:10.103Z,94657.13
2023-04-23T10:06:37.018Z,94652.22
2023-04-23T10:07:35.487Z,94586.78
2023-04-23T10:08:32.780Z,94644.13
2023-04-23T10:09:30.763Z,94649.72
2023-04-23T10:10:27.891Z,94646.97
2023-04-23T10:11:28.471Z,94646.53
2023-04-23T10:13:26.928Z,94643.91
2023-04-23T10:14:25.892Z,94650.31
2023-04-23T10:15:26.925Z,94651.06
2023-04-23T10:16:28.536Z,94642.81
2023-04-23T10:17:34.655Z,94629.47
2023-04-23T10:18:33.238Z,94641.19
2023-04-23T10:19:30.440Z,94623.91
2023-04-23T10:20:27.237Z,94636.97
2023-04-23T10:21:32.150Z,94633.47
2023-04-23T10:22:37.828Z,94631.13
2023-04-23T10:23:38.794Z,94519.28
2023-04-23T10:24:40.706Z,94538.50
2023-04-23T10:25:40.543Z,94625.00
2023-04-23T10:26:43.389Z,94626.56
2023-04-23T10:27:53.192Z,94630.56
2023-04-23T10:28:55.049Z,94601.31
2023-04-23T10:29:53.669Z,94597.56
2023-04-23T10:30:51.638Z,94568.28
2023-04-23T10:31:49.910Z,94564.06
2023-04-23T10:32:49.837Z,94620.22
2023-04-23T10:34:54.104Z,94617.03
2023-04-23T10:35:52.766Z,94620.50
2023-04-23T10:36:51.450Z,94595.19
2023-04-23T10:37:49.427Z,94609.03
2023-04-23T10:38:57.174Z,94581.63
2023-04-23T10:39:59.450Z,94613.28
2023-04-23T10:40:59.006Z,94608.75
2023-04-23T10:41:56.888Z,94606.66
2023-04-23T10:42:55.540Z,94569.38
2023-04-23T10:43:53.780Z,94534.53
2023-04-23T10:44:59.342Z,94603.16
2023-04-23T10:46:00.958Z,94607.19
2023-04-23T10:47:00.811Z,94602.94
2023-04-23T10:47:59.088Z,94543.81
2023-04-23T10:49:16.776Z,94596.50
2023-04-23T10:50:27.979Z,94596.00
2023-04-23T10:52:17.114Z,94586.38
2023-04-23T10:52:54.286Z,94597.84
2023-04-23T10:53:52.030Z,94568.00
2023-04-23T10:54:56.652Z,94539.53
2023-04-23T10:56:07.835Z,94565.56
2023-04-23T10:57:07.134Z,94521.06
2023-04-23T10:58:08.524Z,94583.00
2023-04-23T10:59:18.424Z,94572.59
2023-04-23T11:00:16.258Z,94575.38
2023-04-23T11:01:13.081Z,94558.94
2023-04-23T11:02:13.368Z,94548.00
2023-04-23T11:03:41.961Z,94578.63
2023-04-23T11:04:54.965Z,94491.31
2023-04-23T11:05:51.740Z,94516.03
2023-04-23T11:06:48.372Z,94566.56
2023-04-23T11:09:29.566Z,94566.66
2023-04-23T11:10:26.268Z,94467.13
2023-04-23T11:11:41.203Z,94554.03
2023-04-23T11:12:40.487Z,94556.94
2023-04-23T11:13:53.251Z,94564.91
2023-04-23T11:14:51.993Z,94557.31
2023-04-23T11:15:48.856Z,94557.63
2023-04-23T11:16:49.167Z,94559.00
2023-04-23T11:17:47.447Z,94556.84
2023-04-23T11:19:08.852Z,94508.63
2023-04-23T11:20:15.109Z,94549.25
2023-04-23T11:21:13.466Z,94446.94
2023-04-23T11:22:18.733Z,94548.84
2023-04-23T11:23:33.120Z,94479.84
2023-04-23T11:24:33.869Z,94552.69
2023-04-23T11:25:30.738Z,94526.56
2023-04-23T11:26:31.610Z,94509.47
2023-04-23T11:27:32.220Z,94546.25
2023-04-23T11:28:36.168Z,94536.19
2023-04-23T11:29:33.255Z,94539.34
2023-04-23T11:30:31.041Z,94555.09
2023-04-23T11:31:29.041Z,94544.66